Time;durP1;ratioP1;P1;durP2;ratioP2;P2;SDS_P1;SDS_P2;PMS_P1;PMS_P2;Temp;Humidity;BMP_temperature;BMP_pressure;BME280_temperature;BME280_humidity;BME280_pressure;Samples;Min_cycle;Max_cycle;Signal;HPM_P1;HPM_P2
2022/03/07 00:00:58;;;;;;;12.05;7.05;;;3.20;99.90;;;;;;5163055;22;20078;-66
2022/03/07 00:03:00;;;;;;;11.83;7.13;;;3.20;99.90;;;;;;5163635;22;20404;-66
2022/03/07 00:05:00;;;;;;;11.10;7.10;;;3.20;99.90;;;;;;5171297;22;20243;-66
2022/03/07 00:07:01;;;;;;;9.52;6.47;;;3.10;99.90;;;;;;5170995;22;20582;-65
2022/03/07 00:09:02;;;;;;;9.80;6.57;;;3.20;99.90;;;;;;5172073;22;20448;-66
2022/03/07 00:11:03;;;;;;;12.45;6.38;;;3.10;99.90;;;;;;5170565;22;20015;-65
2022/03/07 00:13:04;;;;;;;9.68;6.45;;;3.10;99.90;;;;;;5165044;22;20000;-65
2022/03/07 00:15:04;;;;;;;11.68;7.25;;;3.00;99.90;;;;;;5163445;22;20016;-66
2022/03/07 00:17:05;;;;;;;11.23;7.22;;;3.00;99.90;;;;;;5162860;22;20044;-65
2022/03/07 00:19:06;;;;;;;10.88;6.85;;;3.00;99.90;;;;;;5165127;22;20019;-66
2022/03/07 00:21:08;;;;;;;9.68;6.57;;;3.00;99.90;;;;;;5162226;22;20008;-65
2022/03/07 00:23:11;;;;;;;9.77;6.20;;;2.90;99.90;;;;;;5163884;22;20013;-65
2022/03/07 00:25:12;;;;;;;9.77;6.35;;;2.90;99.90;;;;;;5162894;22;20020;-65
2022/03/07 00:27:12;;;;;;;11.88;6.45;;;2.90;99.90;;;;;;5163546;22;20372;-65
2022/03/07 00:29:13;;;;;;;12.40;7.75;;;2.90;99.90;;;;;;5164561;22;20012;-65
2022/03/07 00:31:14;;;;;;;11.15;6.82;;;2.90;99.90;;;;;;5163855;22;20040;-65
2022/03/07 00:33:16;;;;;;;11.48;7.80;;;2.90;99.90;;;;;;5164483;22;20075;-65
2022/03/07 00:35:16;;;;;;;9.63;6.22;;;2.90;99.90;;;;;;5162859;22;20015;-65
2022/03/07 00:37:17;;;;;;;11.45;7.47;;;2.90;99.90;;;;;;5164574;22;20440;-65
2022/03/07 00:39:18;;;;;;;12.60;7.20;;;2.90;99.90;;;;;;5163683;22;20087;-65
2022/03/07 00:41:18;;;;;;;11.38;7.30;;;2.90;99.90;;;;;;5163470;22;20016;-65
2022/03/07 00:43:21;;;;;;;11.95;7.57;;;2.90;99.90;;;;;;5163955;22;20051;-65
2022/03/07 00:45:21;;;;;;;11.65;7.53;;;2.90;99.90;;;;;;5163091;22;20079;-65
2022/03/07 00:47:22;;;;;;;14.82;7.30;;;2.90;99.90;;;;;;5163700;22;20019;-65
2022/03/07 00:49:22;;;;;;;13.75;7.97;;;2.90;99.90;;;;;;5163555;22;20428;-65
2022/03/07 00:51:26;;;;;;;12.07;7.50;;;2.90;99.90;;;;;;5162479;22;20115;-65
2022/03/07 00:53:27;;;;;;;14.05;8.38;;;2.90;99.90;;;;;;5163167;22;20441;-66
2022/03/07 00:55:28;;;;;;;12.57;8.07;;;2.90;99.90;;;;;;5162845;22;20065;-65
2022/03/07 00:57:28;;;;;;;12.68;7.60;;;2.90;99.90;;;;;;5163676;22;20016;-65
2022/03/07 00:59:29;;;;;;;11.85;7.57;;;2.90;99.90;;;;;;5163456;22;20017;-66
2022/03/07 01:01:29;;;;;;;11.65;8.07;;;2.90;99.90;;;;;;5162491;22;20028;-66
2022/03/07 01:03:30;;;;;;;11.77;7.32;;;2.90;99.90;;;;;;5163743;22;20008;-65
2022/03/07 01:05:31;;;;;;;12.23;7.65;;;2.90;99.90;;;;;;5162793;22;20016;-66
2022/03/07 01:07:32;;;;;;;13.35;7.68;;;2.90;99.90;;;;;;5164024;22;20313;-65
2022/03/07 01:09:33;;;;;;;12.57;8.20;;;2.90;99.90;;;;;;5163767;22;20154;-65
2022/03/07 01:11:35;;;;;;;10.57;7.32;;;2.90;99.90;;;;;;5162554;22;20081;-65
2022/03/07 01:13:36;;;;;;;11.57;8.27;;;2.90;99.90;;;;;;5162845;22;20008;-66
2022/03/07 01:15:36;;;;;;;12.82;8.15;;;2.90;99.90;;;;;;5163941;22;20058;-65
2022/03/07 01:17:38;;;;;;;10.75;7.32;;;2.90;99.90;;;;;;5164515;22;20448;-66
2022/03/07 01:19:38;;;;;;;13.40;7.90;;;2.90;99.90;;;;;;5163439;22;20030;-65
2022/03/07 01:21:39;;;;;;;12.40;7.60;;;2.90;99.90;;;;;;5163277;22;20397;-65
2022/03/07 01:23:40;;;;;;;11.88;7.50;;;2.90;99.90;;;;;;5163547;22;20008;-65
2022/03/07 01:25:41;;;;;;;14.55;8.05;;;2.80;99.90;;;;;;5161897;22;20043;-65
2022/03/07 01:27:42;;;;;;;10.82;7.90;;;2.80;99.90;;;;;;5163689;22;20016;-65
2022/03/07 01:29:42;;;;;;;12.68;7.85;;;2.80;99.90;;;;;;5164230;22;20423;-65
2022/03/07 01:31:45;;;;;;;11.70;7.97;;;2.80;99.90;;;;;;5164611;22;20016;-65
2022/03/07 01:33:45;;;;;;;12.23;8.20;;;2.80;99.90;;;;;;5165071;22;20331;-65
2022/03/07 01:35:46;;;;;;;12.73;8.07;;;2.80;99.90;;;;;;5164596;22;20103;-65
2022/03/07 01:37:47;;;;;;;12.20;7.90;;;2.80;99.90;;;;;;5165351;22;20020;-65
2022/03/07 01:39:48;;;;;;;12.00;7.70;;;2.70;99.90;;;;;;5165711;22;20051;-65
2022/03/07 01:41:48;;;;;;;12.02;8.32;;;2.70;99.90;;;;;;5164458;22;20015;-65
2022/03/07 01:43:49;;;;;;;12.02;8.43;;;2.80;99.90;;;;;;5165130;22;20451;-65
2022/03/07 01:45:50;;;;;;;11.05;7.63;;;2.70;99.90;;;;;;5164622;22;20016;-65
2022/03/07 01:47:50;;;;;;;13.23;8.52;;;2.80;99.90;;;;;;5165083;22;20012;-65
2022/03/07 01:49:52;;;;;;;11.98;7.97;;;2.70;99.90;;;;;;5162938;23;20008;-65
2022/03/07 01:51:53;;;;;;;11.68;8.05;;;2.70;99.90;;;;;;5164074;22;20442;-65
2022/03/07 01:53:54;;;;;;;12.90;8.13;;;2.70;99.90;;;;;;5164896;22;20016;-65
2022/03/07 01:55:55;;;;;;;12.73;8.15;;;2.70;99.90;;;;;;5163991;22;20008;-65
2022/03/07 01:57:56;;;;;;;15.93;8.43;;;2.70;99.90;;;;;;5164937;22;20083;-65
2022/03/07 01:59:57;;;;;;;13.63;8.75;;;2.70;99.90;;;;;;5164443;22;20436;-65
2022/03/07 02:01:58;;;;;;;10.93;7.03;;;2.70;99.90;;;;;;5163420;22;20012;-66
2022/03/07 02:03:59;;;;;;;12.10;8.50;;;2.70;99.90;;;;;;5165088;22;20008;-66
2022/03/07 02:06:00;;;;;;;12.10;8.52;;;2.70;99.90;;;;;;5163782;22;20008;-65
2022/03/07 02:08:00;;;;;;;13.85;8.15;;;2.60;99.90;;;;;;5164958;22;20067;-65
2022/03/07 02:10:01;;;;;;;16.02;9.30;;;2.60;99.90;;;;;;5164671;22;20459;-65
2022/03/07 02:12:02;;;;;;;13.13;8.13;;;2.60;99.90;;;;;;5164055;22;20015;-65
2022/03/07 02:14:20;;;;;;;14.35;8.82;;;2.60;99.90;;;;;;5164256;22;20012;-66
2022/03/07 02:16:20;;;;;;;13.25;8.80;;;2.60;99.90;;;;;;5163338;22;20008;-65
2022/03/07 02:18:22;;;;;;;13.23;8.82;;;2.50;99.90;;;;;;5164711;22;20079;-65
2022/03/07 02:20:23;;;;;;;14.43;9.73;;;2.50;99.90;;;;;;5163901;22;20012;-65
2022/03/07 02:22:24;;;;;;;13.32;8.75;;;2.50;99.90;;;;;;5162704;23;20301;-65
2022/03/07 02:24:24;;;;;;;14.55;8.65;;;2.50;99.90;;;;;;5164759;22;20070;-65
2022/03/07 02:26:25;;;;;;;12.80;8.85;;;2.40;99.90;;;;;;5163683;22;20016;-66
2022/03/07 02:28:26;;;;;;;13.45;8.65;;;2.40;99.90;;;;;;5164459;22;20332;-64
2022/03/07 02:30:26;;;;;;;14.23;8.63;;;2.40;99.90;;;;;;5164041;22;20008;-65
2022/03/07 02:32:27;;;;;;;13.45;9.10;;;2.40;99.90;;;;;;5164642;22;20007;-67
2022/03/07 02:34:27;;;;;;;12.77;8.38;;;2.40;99.90;;;;;;5164214;22;20080;-66
2022/03/07 02:36:28;;;;;;;12.50;8.40;;;2.30;99.90;;;;;;5164298;22;20016;-66
2022/03/07 02:38:29;;;;;;;11.75;7.70;;;2.40;99.90;;;;;;5164705;22;20032;-65
2022/03/07 02:40:29;;;;;;;14.80;9.00;;;2.30;99.90;;;;;;5163901;22;20083;-66
2022/03/07 02:42:30;;;;;;;15.15;8.68;;;2.40;99.90;;;;;;5164793;22;19997;-65
2022/03/07 02:44:31;;;;;;;14.45;9.57;;;2.40;99.90;;;;;;5159410;22;20447;-65
2022/03/07 02:46:32;;;;;;;12.60;8.30;;;2.40;99.90;;;;;;5161791;22;20015;-65
2022/03/07 02:48:32;;;;;;;13.07;8.55;;;2.40;99.90;;;;;;5164582;22;20008;-65
2022/03/07 02:50:33;;;;;;;12.90;8.65;;;2.40;99.90;;;;;;5163808;22;20005;-65
2022/03/07 02:52:33;;;;;;;14.75;9.38;;;2.40;99.90;;;;;;5164381;22;20379;-66
2022/03/07 02:54:34;;;;;;;12.18;8.00;;;2.40;99.90;;;;;;5164339;22;20043;-65
2022/03/07 02:56:35;;;;;;;13.20;9.30;;;2.40;99.90;;;;;;5163528;22;20095;-65
2022/03/07 02:58:36;;;;;;;12.32;8.30;;;2.40;99.90;;;;;;5163751;22;20183;-65
2022/03/07 03:00:37;;;;;;;12.25;8.40;;;2.40;99.90;;;;;;5161290;23;20020;-65
2022/03/07 03:02:38;;;;;;;11.48;8.07;;;2.40;99.90;;;;;;5165953;22;20008;-65
2022/03/07 03:04:40;;;;;;;13.27;8.50;;;2.50;99.90;;;;;;5165809;22;20043;-65
2022/03/07 03:06:41;;;;;;;12.85;8.40;;;2.40;99.90;;;;;;5164809;22;20118;-66
2022/03/07 03:08:42;;;;;;;14.25;8.48;;;2.40;99.90;;;;;;5164754;22;20521;-65
2022/03/07 03:10:43;;;;;;;14.18;9.13;;;2.50;99.90;;;;;;5163487;22;20008;-65
2022/03/07 03:12:45;;;;;;;13.95;8.55;;;2.50;99.90;;;;;;5164607;22;20024;-65
2022/03/07 03:14:46;;;;;;;15.00;9.32;;;2.50;99.90;;;;;;5165061;22;20005;-65
2022/03/07 03:16:47;;;;;;;14.40;8.90;;;2.60;99.90;;;;;;5163355;22;20039;-66
2022/03/07 03:18:48;;;;;;;13.43;8.88;;;2.60;99.90;;;;;;5164718;22;20517;-65
2022/03/07 03:20:50;;;;;;;14.07;9.05;;;2.60;99.90;;;;;;5163784;22;20013;-65
2022/03/07 03:22:51;;;;;;;;;;;2.60;99.90;;;;;;5165113;22;20015;-65
2022/03/07 03:24:51;;;;;;;12.40;8.25;;;2.60;99.90;;;;;;5164348;22;19904;-65
2022/03/07 03:26:52;;;;;;;12.00;7.85;;;2.70;99.90;;;;;;5163800;22;20023;-65
2022/03/07 03:28:53;;;;;;;15.48;8.95;;;2.60;99.90;;;;;;5164353;22;20009;-65
2022/03/07 03:30:53;;;;;;;13.43;8.82;;;2.60;99.90;;;;;;5163494;22;20027;-65
2022/03/07 03:32:54;;;;;;;13.93;9.18;;;2.60;99.90;;;;;;5164143;22;20091;-65
2022/03/07 03:34:55;;;;;;;13.55;8.88;;;2.60;99.90;;;;;;5164102;22;20079;-65
2022/03/07 03:36:56;;;;;;;14.90;9.20;;;2.60;99.90;;;;;;5163489;22;20376;-65
2022/03/07 03:38:56;;;;;;;11.80;8.90;;;2.60;99.90;;;;;;5164037;22;20087;-65
2022/03/07 03:40:57;;;;;;;12.30;8.50;;;2.60;99.90;;;;;;5163100;22;20008;-65
2022/03/07 03:42:58;;;;;;;12.45;9.30;;;2.60;99.90;;;;;;5163883;22;20079;-65
2022/03/07 03:44:58;;;;;;;14.88;9.20;;;2.50;99.90;;;;;;5163907;22;20008;-65
2022/03/07 03:46:59;;;;;;;14.98;9.80;;;2.50;99.90;;;;;;5163917;22;20012;-66
2022/03/07 03:48:59;;;;;;;13.98;9.38;;;2.40;99.90;;;;;;5161888;23;20014;-65
2022/03/07 03:51:00;;;;;;;12.93;8.98;;;2.30;99.90;;;;;;5162877;22;20447;-65
2022/03/07 03:53:01;;;;;;;13.75;8.50;;;2.10;99.90;;;;;;5163952;22;20004;-66
2022/03/07 03:55:02;;;;;;;13.30;9.35;;;2.10;99.90;;;;;;5164485;22;20008;-65
2022/03/07 03:57:04;;;;;;;14.03;8.70;;;2.10;99.90;;;;;;5163380;22;20016;-65
2022/03/07 03:59:04;;;;;;;13.25;9.30;;;2.10;99.90;;;;;;5163764;22;20028;-65
2022/03/07 04:01:05;;;;;;;14.35;9.27;;;2.20;99.90;;;;;;5163029;22;20031;-65
2022/03/07 04:03:06;;;;;;;12.63;8.55;;;2.20;99.90;;;;;;5163674;22;20551;-65
2022/03/07 04:05:07;;;;;;;15.68;9.60;;;2.30;99.90;;;;;;5162966;22;20082;-66
2022/03/07 04:07:08;;;;;;;13.75;9.57;;;2.10;99.90;;;;;;5165213;22;20490;-65
2022/03/07 04:09:11;;;;;;;13.25;8.50;;;2.00;99.90;;;;;;5165651;22;20318;-65
2022/03/07 04:11:11;;;;;;;12.50;8.57;;;2.10;99.90;;;;;;5163950;22;20332;-66
2022/03/07 04:13:12;;;;;;;12.18;8.73;;;2.10;99.90;;;;;;5164726;22;20020;-66
2022/03/07 04:15:13;;;;;;;15.15;8.70;;;2.00;99.90;;;;;;5164157;22;20480;-66
2022/03/07 04:17:13;;;;;;;11.93;8.18;;;2.10;99.90;;;;;;5165049;22;20083;-65
2022/03/07 04:19:15;;;;;;;14.15;8.63;;;2.20;99.90;;;;;;5165006;22;20004;-65
2022/03/07 04:21:16;;;;;;;13.93;9.00;;;2.10;99.90;;;;;;5163929;22;20015;-65
2022/03/07 04:23:20;;;;;;;12.60;8.23;;;2.20;99.90;;;;;;5164514;22;20012;-65
2022/03/07 04:25:21;;;;;;;11.88;8.38;;;2.20;99.90;;;;;;5163636;22;20015;-65
2022/03/07 04:27:22;;;;;;;11.20;8.23;;;2.30;99.90;;;;;;5164077;22;20008;-65
2022/03/07 04:29:23;;;;;;;13.13;9.13;;;2.30;99.90;;;;;;5164006;22;20421;-65
2022/03/07 04:31:24;;;;;;;12.15;8.55;;;2.20;99.90;;;;;;5163214;22;20431;-65
2022/03/07 04:33:24;;;;;;;14.98;9.38;;;2.30;99.90;;;;;;5164112;22;20004;-65
2022/03/07 04:35:25;;;;;;;14.90;9.60;;;2.20;99.90;;;;;;5163427;22;20016;-65
2022/03/07 04:37:25;;;;;;;12.57;8.20;;;2.20;99.90;;;;;;5164191;22;20020;-65
2022/03/07 04:39:27;;;;;;;14.25;9.25;;;2.30;99.90;;;;;;5164000;22;20012;-65
2022/03/07 04:41:28;;;;;;;13.87;8.87;;;2.20;99.90;;;;;;5156541;22;20021;-65
2022/03/07 04:43:28;;;;;;;14.23;8.50;;;2.20;99.90;;;;;;5163813;22;20004;-65
2022/03/07 04:45:29;;;;;;;13.68;8.93;;;2.20;99.90;;;;;;5162053;22;20012;-65
2022/03/07 04:47:29;;;;;;;12.98;8.88;;;2.10;99.90;;;;;;5164792;22;20012;-66
2022/03/07 04:49:30;;;;;;;13.70;9.18;;;2.10;99.90;;;;;;5164029;22;20008;-65
2022/03/07 04:51:31;;;;;;;14.45;9.32;;;2.00;99.90;;;;;;5162784;22;20034;-65
2022/03/07 04:53:31;;;;;;;12.50;8.65;;;1.90;99.90;;;;;;5164028;22;20019;-66
2022/03/07 04:55:32;;;;;;;15.57;9.60;;;1.80;99.90;;;;;;5163256;22;20058;-65
2022/03/07 04:57:33;;;;;;;12.75;8.90;;;1.70;99.90;;;;;;5163839;22;20019;-65
2022/03/07 04:59:33;;;;;;;15.93;8.95;;;1.60;99.90;;;;;;5163748;22;20087;-66
2022/03/07 05:01:34;;;;;;;12.35;8.48;;;1.50;99.90;;;;;;5161841;22;20043;-65
2022/03/07 05:03:34;;;;;;;11.93;8.65;;;1.60;99.90;;;;;;5163590;22;20432;-65
2022/03/07 05:05:35;;;;;;;14.45;8.82;;;1.60;99.90;;;;;;5163777;22;20035;-65
2022/03/07 05:07:36;;;;;;;14.93;9.23;;;1.70;99.90;;;;;;5163620;22;20001;-65
2022/03/07 05:09:36;;;;;;;12.00;8.52;;;1.60;99.90;;;;;;5164466;22;20008;-65
2022/03/07 05:11:37;;;;;;;12.23;8.57;;;1.60;99.90;;;;;;5164346;22;20387;-65
2022/03/07 05:13:37;;;;;;;13.00;8.18;;;1.60;99.90;;;;;;5165575;22;20015;-65
2022/03/07 05:15:38;;;;;;;12.18;8.48;;;1.80;99.90;;;;;;5164333;22;20011;-66
2022/03/07 05:17:48;;;;;;;11.48;8.07;;;1.70;99.90;;;;;;5164411;22;20016;-66
2022/03/07 05:19:49;;;;;;;13.02;8.75;;;1.70;99.90;;;;;;5164640;22;20321;-65
2022/03/07 05:21:49;;;;;;;14.27;8.57;;;1.70;99.90;;;;;;5164409;22;20042;-65
2022/03/07 05:23:50;;;;;;;14.35;8.82;;;1.70;99.90;;;;;;5165985;22;20329;-65
2022/03/07 05:25:51;;;;;;;13.77;9.02;;;1.70;99.90;;;;;;5164662;22;20332;-65
2022/03/07 05:27:51;;;;;;;15.43;9.20;;;1.70;99.90;;;;;;5165958;22;20087;-65
2022/03/07 05:29:52;;;;;;;14.70;9.60;;;1.60;99.90;;;;;;5165132;22;20353;-65
2022/03/07 05:31:52;;;;;;;13.40;8.75;;;1.60;99.90;;;;;;5164635;22;19996;-65
2022/03/07 05:33:53;;;;;;;12.93;8.35;;;1.60;99.90;;;;;;5165811;22;20008;-65
2022/03/07 05:35:54;;;;;;;12.32;8.68;;;1.60;99.90;;;;;;5164809;22;20038;-65
2022/03/07 05:37:55;;;;;;;11.85;7.53;;;1.60;99.90;;;;;;5164944;22;20027;-65
2022/03/07 05:39:55;;;;;;;12.63;7.82;;;1.70;99.90;;;;;;5165553;22;20008;-65
2022/03/07 05:41:56;;;;;;;14.68;8.48;;;1.80;99.90;;;;;;5164778;22;20000;-65
2022/03/07 05:43:57;;;;;;;11.73;8.18;;;1.80;99.90;;;;;;5165918;22;20425;-65
2022/03/07 05:45:57;;;;;;;14.00;7.75;;;1.80;99.90;;;;;;5163975;22;20008;-65
2022/03/07 05:47:58;;;;;;;13.70;8.27;;;2.00;99.90;;;;;;5164730;22;20012;-65
2022/03/07 05:49:58;;;;;;;12.45;8.50;;;2.00;99.90;;;;;;5163218;23;20088;-65
2022/03/07 05:51:59;;;;;;;13.43;7.88;;;2.00;99.90;;;;;;5164362;22;20008;-65
2022/03/07 05:54:00;;;;;;;13.65;7.78;;;2.10;99.90;;;;;;5164995;22;20417;-67
2022/03/07 05:56:00;;;;;;;12.98;7.20;;;2.20;99.90;;;;;;5161917;23;20009;-64
2022/03/07 05:58:01;;;;;;;13.45;8.15;;;2.30;99.90;;;;;;5165523;22;20096;-65
2022/03/07 06:00:05;;;;;;;12.93;8.55;;;2.30;99.90;;;;;;5165417;22;20071;-66
2022/03/07 06:02:05;;;;;;;13.25;7.57;;;2.20;99.90;;;;;;5164498;22;20028;-65
2022/03/07 06:04:06;;;;;;;13.07;7.95;;;2.30;99.90;;;;;;5164993;22;20035;-66
2022/03/07 06:06:06;;;;;;;11.73;7.80;;;2.40;99.90;;;;;;5163189;22;20095;-66
2022/03/07 06:08:07;;;;;;;12.15;7.97;;;2.50;99.90;;;;;;5163472;22;20039;-65
2022/03/07 06:10:08;;;;;;;13.43;8.15;;;2.50;99.90;;;;;;5163546;22;20340;-66
2022/03/07 06:12:09;;;;;;;12.38;8.07;;;2.60;99.90;;;;;;5163671;22;20008;-67
2022/03/07 06:14:10;;;;;;;10.98;7.43;;;2.70;99.90;;;;;;5165709;22;20012;-65
2022/03/07 06:16:11;;;;;;;12.10;7.30;;;2.80;99.90;;;;;;5163704;22;20035;-66
2022/03/07 06:18:12;;;;;;;12.20;7.33;;;2.70;99.90;;;;;;5165860;22;20031;-66
2022/03/07 06:20:13;;;;;;;12.27;7.85;;;2.80;99.90;;;;;;5167929;22;20329;-67
2022/03/07 06:22:14;;;;;;;11.13;7.53;;;2.90;99.90;;;;;;5167673;22;20008;-66
2022/03/07 06:24:14;;;;;;;10.70;6.60;;;3.00;99.90;;;;;;5170091;22;20016;-66
2022/03/07 06:26:15;;;;;;;11.63;7.32;;;3.00;99.90;;;;;;5168093;22;20004;-64
2022/03/07 06:28:16;;;;;;;12.55;7.30;;;3.00;99.90;;;;;;5190835;22;20012;-65
2022/03/07 06:30:16;;;;;;;12.93;7.40;;;3.10;99.90;;;;;;5166433;22;20008;-65
2022/03/07 06:32:17;;;;;;;10.13;6.97;;;3.10;99.90;;;;;;5163399;22;20000;-65
2022/03/07 06:34:17;;;;;;;11.38;7.28;;;3.20;99.90;;;;;;5165309;22;20016;-65
2022/03/07 06:36:18;;;;;;;12.35;7.50;;;3.20;99.90;;;;;;5163472;22;20336;-65
2022/03/07 06:38:19;;;;;;;11.30;7.43;;;3.20;99.90;;;;;;5164529;22;20008;-65
2022/03/07 06:40:22;;;;;;;10.75;7.65;;;3.20;99.90;;;;;;5163145;22;20395;-65
2022/03/07 06:42:23;;;;;;;10.57;7.13;;;3.20;99.90;;;;;;5163693;22;20011;-64
2022/03/07 06:44:24;;;;;;;11.20;7.32;;;3.20;99.90;;;;;;5163763;22;20008;-65
2022/03/07 06:46:24;;;;;;;10.43;7.07;;;3.30;99.90;;;;;;5162562;22;20023;-65
2022/03/07 06:48:25;;;;;;;12.77;8.30;;;3.30;99.90;;;;;;5163570;22;20016;-65
2022/03/07 06:50:26;;;;;;;10.35;7.30;;;3.20;99.90;;;;;;5162326;22;20012;-65
2022/03/07 06:52:27;;;;;;;12.40;7.63;;;3.20;99.90;;;;;;5163743;22;20420;-64
2022/03/07 06:54:28;;;;;;;13.13;6.97;;;3.20;99.90;;;;;;5163523;22;20480;-65
2022/03/07 06:56:29;;;;;;;12.48;7.55;;;3.30;99.90;;;;;;5162231;22;20027;-64
2022/03/07 06:58:29;;;;;;;10.68;7.00;;;3.30;99.90;;;;;;5163525;22;20012;-65
2022/03/07 07:00:30;;;;;;;10.43;6.65;;;3.30;99.90;;;;;;5160115;23;20020;-64
2022/03/07 07:02:31;;;;;;;11.77;7.72;;;3.30;99.90;;;;;;5163486;22;20023;-65
2022/03/07 07:04:31;;;;;;;12.23;7.47;;;3.30;99.90;;;;;;5163157;22;20035;-64
2022/03/07 07:06:32;;;;;;;12.02;7.82;;;3.30;99.90;;;;;;5160739;22;20034;-65
2022/03/07 07:08:33;;;;;;;16.02;8.38;;;3.20;99.90;;;;;;5161991;22;20039;-65
2022/03/07 07:10:34;;;;;;;14.77;8.45;;;3.10;99.90;;;;;;5162358;22;20007;-65
2022/03/07 07:12:36;;;;;;;11.88;7.53;;;3.00;99.90;;;;;;5163697;22;20032;-65
2022/03/07 07:14:37;;;;;;;13.40;7.88;;;3.10;99.90;;;;;;5160995;23;20456;-65
2022/03/07 07:16:38;;;;;;;11.38;7.32;;;3.00;99.90;;;;;;5161990;22;20004;-65
2022/03/07 07:18:38;;;;;;;11.88;7.60;;;3.00;99.90;;;;;;5163171;22;20009;-65
2022/03/07 07:20:39;;;;;;;11.32;7.13;;;3.00;99.90;;;;;;5158668;22;20035;-64
2022/03/07 07:22:40;;;;;;;11.90;7.70;;;3.00;99.90;;;;;;5159160;22;20019;-66
2022/03/07 07:24:42;;;;;;;13.45;8.18;;;3.00;99.90;;;;;;5164000;22;20079;-65
2022/03/07 07:26:42;;;;;;;14.27;7.80;;;3.00;99.90;;;;;;5162826;22;20016;-65
2022/03/07 07:28:43;;;;;;;12.57;7.72;;;3.10;99.90;;;;;;5163808;22;20004;-65
2022/03/07 07:30:46;;;;;;;13.60;8.00;;;3.00;99.90;;;;;;5163627;22;20432;-65
2022/03/07 07:32:46;;;;;;;13.10;7.72;;;3.00;99.90;;;;;;5160889;23;20295;-64
2022/03/07 07:34:47;;;;;;;14.38;8.48;;;3.00;99.90;;;;;;5164541;22;20460;-65
2022/03/07 07:36:49;;;;;;;13.20;7.90;;;2.90;99.90;;;;;;5162352;22;20462;-65
2022/03/07 07:38:49;;;;;;;13.60;8.20;;;3.00;99.90;;;;;;5164250;22;20008;-64
2022/03/07 07:40:50;;;;;;;13.88;7.75;;;3.00;99.90;;;;;;5162009;22;20430;-64
2022/03/07 07:42:51;;;;;;;14.90;8.73;;;2.90;99.90;;;;;;5163945;22;21896;-64
2022/03/07 07:44:51;;;;;;;13.90;8.40;;;2.90;99.90;;;;;;5163941;22;20024;-65
2022/03/07 07:46:53;;;;;;;16.10;8.52;;;2.80;99.90;;;;;;5159049;23;20038;-65
2022/03/07 07:48:53;;;;;;;13.63;7.97;;;2.80;99.90;;;;;;5163437;22;20012;-65
2022/03/07 07:50:54;;;;;;;12.32;7.47;;;2.80;99.90;;;;;;5162853;22;20305;-65
2022/03/07 07:52:55;;;;;;;12.00;7.18;;;2.90;99.90;;;;;;5163454;22;20008;-64
2022/03/07 07:54:55;;;;;;;14.60;7.70;;;3.10;99.90;;;;;;5163366;22;20012;-65
2022/03/07 07:56:56;;;;;;;12.68;7.22;;;3.20;99.90;;;;;;5161788;22;20050;-65
2022/03/07 07:58:56;;;;;;;11.50;7.88;;;3.40;99.90;;;;;;5163560;22;20336;-64
2022/03/07 08:00:57;;;;;;;12.07;8.07;;;3.40;99.90;;;;;;5162675;22;20020;-65
2022/03/07 08:02:58;;;;;;;10.40;7.28;;;3.60;99.90;;;;;;5162749;22;20381;-64
2022/03/07 08:04:58;;;;;;;11.77;7.32;;;3.80;99.90;;;;;;5162837;22;20008;-65
2022/03/07 08:06:59;;;;;;;9.65;6.60;;;3.90;99.90;;;;;;5161442;22;20019;-65
2022/03/07 08:09:02;;;;;;;10.40;6.50;;;4.20;99.90;;;;;;5162556;22;20011;-64
2022/03/07 08:11:03;;;;;;;10.85;6.78;;;4.50;99.90;;;;;;5161558;22;20083;-65
2022/03/07 08:13:03;;;;;;;10.95;6.55;;;4.80;99.90;;;;;;5162655;22;20313;-65
2022/03/07 08:15:11;;;;;;;10.05;6.47;;;5.20;99.90;;;;;;5162411;22;20004;-65
2022/03/07 08:17:12;;;;;;;10.65;6.45;;;5.50;99.90;;;;;;5159120;23;20126;-65
2022/03/07 08:19:13;;;;;;;13.93;6.68;;;6.00;99.90;;;;;;5160166;23;20451;-65
2022/03/07 08:21:13;;;;;;;10.15;5.53;;;6.40;99.90;;;;;;5162896;22;20015;-65
2022/03/07 08:23:14;;;;;;;9.75;5.95;;;6.60;99.90;;;;;;5163300;22;20038;-65
2022/03/07 08:25:15;;;;;;;8.27;5.35;;;7.00;99.90;;;;;;5162833;22;20015;-66
2022/03/07 08:27:16;;;;;;;8.48;5.25;;;7.50;99.90;;;;;;5162935;22;20012;-66
2022/03/07 08:29:16;;;;;;;8.05;5.30;;;8.10;99.90;;;;;;5163700;22;20019;-66
2022/03/07 08:31:17;;;;;;;8.95;5.00;;;8.20;99.90;;;;;;5162121;22;20054;-65
2022/03/07 08:33:18;;;;;;;7.03;4.85;;;8.60;99.90;;;;;;5163469;22;20004;-65
2022/03/07 08:35:19;;;;;;;6.82;4.68;;;8.70;99.90;;;;;;5162785;22;20476;-65
2022/03/07 08:37:20;;;;;;;6.68;4.68;;;9.00;99.90;;;;;;5162608;22;20020;-65
2022/03/07 08:39:21;;;;;;;6.82;4.53;;;8.90;99.30;;;;;;5163362;22;20445;-65
2022/03/07 08:41:21;;;;;;;6.80;4.15;;;9.20;97.80;;;;;;5162153;22;20012;-65
2022/03/07 08:43:22;;;;;;;6.78;4.80;;;9.30;97.40;;;;;;5162782;22;20012;-66
2022/03/07 08:45:27;;;;;;;8.70;4.63;;;9.30;95.20;;;;;;5162233;22;20016;-64
2022/03/07 08:47:28;;;;;;;7.82;4.63;;;9.00;88.20;;;;;;5162332;22;20020;-64
2022/03/07 08:49:29;;;;;;;6.30;4.43;;;9.10;91.50;;;;;;5163143;22;20053;-64
2022/03/07 08:51:29;;;;;;;7.00;3.95;;;8.50;85.80;;;;;;5161589;22;20340;-64
2022/03/07 08:53:30;;;;;;;8.05;3.75;;;8.20;87.30;;;;;;5162731;22;20019;-66
2022/03/07 08:55:31;;;;;;;6.13;4.05;;;8.40;90.90;;;;;;5161727;22;20016;-65
2022/03/07 08:57:31;;;;;;;5.40;3.88;;;8.30;90.60;;;;;;5161524;22;20027;-66
2022/03/07 08:59:32;;;;;;;6.38;3.72;;;8.50;90.10;;;;;;5162817;22;20015;-66
2022/03/07 09:01:33;;;;;;;5.13;3.60;;;8.40;87.20;;;;;;5162252;22;20463;-64
2022/03/07 09:03:34;;;;;;;5.28;3.40;;;8.40;84.60;;;;;;5163144;22;20321;-64
2022/03/07 09:05:35;;;;;;;4.83;3.60;;;8.40;89.80;;;;;;5161785;22;20007;-66
2022/03/07 09:07:36;;;;;;;8.52;4.00;;;8.40;87.70;;;;;;5161746;22;20004;-66
2022/03/07 09:09:37;;;;;;;4.43;3.60;;;8.40;86.60;;;;;;5163101;22;20010;-65
2022/03/07 09:11:37;;;;;;;5.82;3.33;;;8.20;82.80;;;;;;5161906;22;20094;-65
2022/03/07 09:13:38;;;;;;;4.53;3.20;;;8.40;91.50;;;;;;5161666;22;20008;-66
2022/03/07 09:15:39;;;;;;;6.70;3.47;;;8.20;89.00;;;;;;5161555;22;20351;-65
2022/03/07 09:17:41;;;;;;;5.65;3.45;;;8.20;86.40;;;;;;5160404;23;20510;-65
2022/03/07 09:19:42;;;;;;;6.20;3.57;;;8.30;83.80;;;;;;5162203;22;20401;-65
2022/03/07 09:21:43;;;;;;;5.00;3.50;;;8.30;82.90;;;;;;5162514;22;20016;-66
2022/03/07 09:23:46;;;;;;;7.85;4.22;;;8.20;82.30;;;;;;5163899;22;20063;-66
2022/03/07 09:25:47;;;;;;;6.50;3.83;;;8.30;84.70;;;;;;5162916;22;20008;-65
2022/03/07 09:27:49;;;;;;;6.20;3.78;;;8.10;80.30;;;;;;5163467;22;20081;-65
2022/03/07 09:29:50;;;;;;;5.85;3.95;;;8.00;80.50;;;;;;5163715;22;20012;-66
2022/03/07 09:31:51;;;;;;;7.05;4.28;;;7.70;87.20;;;;;;5162502;22;20018;-65
2022/03/07 09:33:51;;;;;;;10.32;4.07;;;7.90;85.80;;;;;;5185843;22;20071;-65
2022/03/07 09:35:52;;;;;;;7.03;3.80;;;7.20;81.20;;;;;;5161616;22;20004;-65
2022/03/07 09:37:52;;;;;;;7.05;4.25;;;7.30;84.30;;;;;;5162804;22;20039;-65
2022/03/07 09:39:53;;;;;;;5.68;3.83;;;7.10;82.70;;;;;;5162072;22;20012;-65
2022/03/07 09:41:54;;;;;;;6.13;4.22;;;7.20;84.90;;;;;;5162838;22;20062;-65
2022/03/07 09:43:54;;;;;;;8.80;4.10;;;7.30;94.20;;;;;;5162232;22;20015;-65
2022/03/07 09:45:55;;;;;;;7.63;4.38;;;7.50;90.80;;;;;;5162227;22;20480;-65
2022/03/07 09:47:57;;;;;;;9.00;4.78;;;7.20;85.90;;;;;;5162680;22;20008;-65
2022/03/07 09:49:58;;;;;;;8.10;4.68;;;7.30;86.00;;;;;;5162894;22;20020;-65
2022/03/07 09:51:59;;;;;;;10.55;4.35;;;7.60;91.10;;;;;;5163023;22;20008;-65
2022/03/07 09:54:00;;;;;;;7.15;4.03;;;7.50;84.70;;;;;;5164124;22;20491;-65
2022/03/07 09:56:01;;;;;;;7.10;4.00;;;7.60;88.60;;;;;;5162986;22;20083;-65
2022/03/07 09:58:02;;;;;;;6.13;4.10;;;7.10;83.90;;;;;;5163845;22;20339;-65
2022/03/07 10:00:04;;;;;;;7.30;3.85;;;7.30;89.10;;;;;;5163698;22;20099;-66
2022/03/07 10:02:09;;;;;;;6.43;3.85;;;7.30;90.60;;;;;;5162995;22;20023;-65
2022/03/07 10:04:12;;;;;;;9.95;4.28;;;7.50;90.50;;;;;;5163607;22;20440;-65
2022/03/07 10:06:14;;;;;;;5.63;3.42;;;7.30;91.10;;;;;;5162617;22;20016;-65
2022/03/07 10:08:27;;;;;;;5.03;3.28;;;7.30;86.20;;;;;;5163562;22;20014;-65
2022/03/07 10:10:36;;;;;;;4.90;3.58;;;7.50;85.00;;;;;;5162196;22;20078;-65
2022/03/07 10:12:48;;;;;;;6.07;3.70;;;7.60;88.30;;;;;;5161965;22;20083;-65
2022/03/07 10:14:49;;;;;;;4.75;3.17;;;7.80;84.60;;;;;;5162486;22;20012;-65
2022/03/07 10:16:49;;;;;;;4.63;3.35;;;7.90;88.00;;;;;;5161441;22;20023;-65
2022/03/07 10:18:52;;;;;;;6.70;3.60;;;8.10;86.50;;;;;;5162119;22;20023;-65
2022/03/07 10:21:04;;;;;;;3.60;2.75;;;8.10;86.00;;;;;;5161357;22;20448;-65
2022/03/07 10:23:08;;;;;;;7.70;3.35;;;8.00;81.30;;;;;;5136590;23;20334;-65
2022/03/07 10:25:09;;;;;;;5.72;3.00;;;7.40;81.30;;;;;;5136250;23;20005;-66
2022/03/07 10:27:10;;;;;;;13.00;3.67;;;7.50;84.60;;;;;;5136629;23;20078;-64
2022/03/07 10:29:11;;;;;;;4.60;3.20;;;7.40;82.60;;;;;;5137016;23;20076;-65
2022/03/07 10:31:15;;;;;;;6.47;3.20;;;7.30;82.90;;;;;;5136509;23;20069;-64
2022/03/07 10:33:16;;;;;;;6.78;4.45;;;7.20;83.00;;;;;;5136430;23;20337;-64